sensor_id;sensor_type;location;lat;lon;timestamp;pressure;altitude;pressure_sealevel;temperature;humidity
39265;BME280;42646;51.910;7.724;2023-03-04T00:00:48;101835.97;;;5.19;84.68
39265;BME280;42646;51.910;7.724;2023-03-04T00:03:17;101830.84;;;5.16;84.63
39265;BME280;42646;51.910;7.724;2023-03-04T00:05:45;101835.13;;;5.18;84.69
39265;BME280;42646;51.910;7.724;2023-03-04T00:08:13;101833.41;;;5.17;84.64
39265;BME280;42646;51.910;7.724;2023-03-04T00:10:43;101831.47;;;5.21;84.24
39265;BME280;42646;51.910;7.724;2023-03-04T00:13:11;101835.91;;;5.20;84.20
39265;BME280;42646;51.910;7.724;2023-03-04T00:15:38;101835.03;;;5.20;84.52
39265;BME280;42646;51.910;7.724;2023-03-04T00:18:06;101833.22;;;5.22;84.34
39265;BME280;42646;51.910;7.724;2023-03-04T00:20:36;101833.88;;;5.25;84.09
39265;BME280;42646;51.910;7.724;2023-03-04T00:23:07;101830.69;;;5.19;83.72
39265;BME280;42646;51.910;7.724;2023-03-04T00:25:35;101827.13;;;5.20;83.96
39265;BME280;42646;51.910;7.724;2023-03-04T00:28:05;101825.34;;;5.20;84.21
39265;BME280;42646;51.910;7.724;2023-03-04T00:30:35;101822.88;;;5.17;83.68
39265;BME280;42646;51.910;7.724;2023-03-04T00:33:03;101828.06;;;5.19;83.78
39265;BME280;42646;51.910;7.724;2023-03-04T00:35:30;101831.63;;;5.18;83.96
39265;BME280;42646;51.910;7.724;2023-03-04T00:37:59;101827.94;;;5.22;83.79
39265;BME280;42646;51.910;7.724;2023-03-04T00:40:27;101821.16;;;5.16;83.99
39265;BME280;42646;51.910;7.724;2023-03-04T00:42:55;101825.44;;;5.19;84.11
39265;BME280;42646;51.910;7.724;2023-03-04T00:45:23;101816.44;;;5.23;83.96
39265;BME280;42646;51.910;7.724;2023-03-04T00:47:51;101825.56;;;5.16;83.73
39265;BME280;42646;51.910;7.724;2023-03-04T00:50:18;101822.91;;;5.16;84.35
39265;BME280;42646;51.910;7.724;2023-03-04T00:52:46;101820.06;;;5.20;84.10
39265;BME280;42646;51.910;7.724;2023-03-04T00:55:15;101813.94;;;5.20;83.84
39265;BME280;42646;51.910;7.724;2023-03-04T00:57:43;101818.28;;;5.21;84.10
39265;BME280;42646;51.910;7.724;2023-03-04T01:00:12;101811.38;;;5.18;84.11
39265;BME280;42646;51.910;7.724;2023-03-04T01:02:40;101815.72;;;5.19;84.42
39265;BME280;42646;51.910;7.724;2023-03-04T01:05:08;101816.50;;;5.21;84.50
39265;BME280;42646;51.910;7.724;2023-03-04T01:07:36;101811.28;;;5.20;85.10
39265;BME280;42646;51.910;7.724;2023-03-04T01:10:06;101816.44;;;5.23;85.17
39265;BME280;42646;51.910;7.724;2023-03-04T01:12:35;101805.03;;;5.22;85.23
39265;BME280;42646;51.910;7.724;2023-03-04T01:15:04;101808.44;;;5.24;85.17
39265;BME280;42646;51.910;7.724;2023-03-04T01:17:31;101810.22;;;5.24;85.20
39265;BME280;42646;51.910;7.724;2023-03-04T01:19:59;101814.66;;;5.23;85.17
39265;BME280;42646;51.910;7.724;2023-03-04T01:22:27;101814.66;;;5.23;85.40
39265;BME280;42646;51.910;7.724;2023-03-04T01:24:55;101805.03;;;5.22;85.65
39265;BME280;42646;51.910;7.724;2023-03-04T01:27:24;101807.59;;;5.24;85.69
39265;BME280;42646;51.910;7.724;2023-03-04T01:29:55;101805.09;;;5.21;85.52
39265;BME280;42646;51.910;7.724;2023-03-04T01:32:23;101795.47;;;5.20;85.59
39265;BME280;42646;51.910;7.724;2023-03-04T01:34:51;101798.28;;;5.17;85.62
39265;BME280;42646;51.910;7.724;2023-03-04T01:37:19;101798.28;;;5.17;85.46
39265;BME280;42646;51.910;7.724;2023-03-04T01:39:47;101798.28;;;5.17;85.58
39265;BME280;42646;51.910;7.724;2023-03-04T01:42:18;101798.56;;;5.11;85.64
39265;BME280;42646;51.910;7.724;2023-03-04T01:44:47;101796.94;;;5.08;85.36
39265;BME280;42646;51.910;7.724;2023-03-04T01:47:17;101791.56;;;5.09;85.31
39265;BME280;42646;51.910;7.724;2023-03-04T01:49:46;101794.91;;;5.13;85.12
39265;BME280;42646;51.910;7.724;2023-03-04T01:52:17;101781.91;;;5.10;84.52
39265;BME280;42646;51.910;7.724;2023-03-04T01:54:49;101789.09;;;5.06;84.55
39265;BME280;42646;51.910;7.724;2023-03-04T01:57:18;101782.97;;;5.06;84.64
39265;BME280;42646;51.910;7.724;2023-03-04T01:59:47;101781.03;;;5.09;84.79
39265;BME280;42646;51.910;7.724;2023-03-04T02:02:40;101779.25;;;5.10;84.93
39265;BME280;42646;51.910;7.724;2023-03-04T02:05:08;101778.38;;;5.09;85.34
39265;BME280;42646;51.910;7.724;2023-03-04T02:07:36;101773.91;;;5.12;84.78
39265;BME280;42646;51.910;7.724;2023-03-04T02:10:05;101769.47;;;5.12;84.83
39265;BME280;42646;51.910;7.724;2023-03-04T02:12:33;101772.88;;;5.14;84.86
39265;BME280;42646;51.910;7.724;2023-03-04T02:15:01;101772.13;;;5.12;84.81
39265;BME280;42646;51.910;7.724;2023-03-04T02:17:31;101766.75;;;5.14;85.24
39265;BME280;42646;51.910;7.724;2023-03-04T02:20:09;101763.19;;;5.15;85.21
39265;BME280;42646;51.910;7.724;2023-03-04T02:22:45;101769.41;;;5.14;85.07
39265;BME280;42646;51.910;7.724;2023-03-04T02:25:44;101769.41;;;5.14;85.39
39265;BME280;42646;51.910;7.724;2023-03-04T02:28:15;101765.06;;;5.13;85.34
39265;BME280;42646;51.910;7.724;2023-03-04T02:30:43;101767.84;;;5.09;85.54
39265;BME280;42646;51.910;7.724;2023-03-04T02:33:16;101760.00;;;5.08;85.63
39265;BME280;42646;51.910;7.724;2023-03-04T02:35:44;101757.53;;;5.05;85.92
39265;BME280;42646;51.910;7.724;2023-03-04T02:38:12;101757.38;;;5.08;85.77
39265;BME280;42646;51.910;7.724;2023-03-04T02:40:41;101753.97;;;5.06;85.83
39265;BME280;42646;51.910;7.724;2023-03-04T02:43:11;101753.88;;;5.07;86.43
39265;BME280;42646;51.910;7.724;2023-03-04T02:46:09;101745.13;;;5.07;86.10
39265;BME280;42646;51.910;7.724;2023-03-04T02:49:08;101750.25;;;5.10;86.40
39265;BME280;42646;51.910;7.724;2023-03-04T02:51:38;101743.25;;;5.09;86.76
39265;BME280;42646;51.910;7.724;2023-03-04T02:54:13;101739.75;;;5.08;86.67
39265;BME280;42646;51.910;7.724;2023-03-04T02:56:44;101741.53;;;5.08;87.30
39265;BME280;42646;51.910;7.724;2023-03-04T02:59:14;101736.19;;;5.09;87.38
39265;BME280;42646;51.910;7.724;2023-03-04T03:01:44;101736.03;;;5.13;87.07
39265;BME280;42646;51.910;7.724;2023-03-04T03:04:12;101732.25;;;5.18;86.94
39265;BME280;42646;51.910;7.724;2023-03-04T03:06:43;101737.91;;;5.11;87.06
39265;BME280;42646;51.910;7.724;2023-03-04T03:09:11;101739.63;;;5.12;87.05
39265;BME280;42646;51.910;7.724;2023-03-04T03:11:39;101736.19;;;5.09;87.15
39265;BME280;42646;51.910;7.724;2023-03-04T03:14:07;101735.34;;;5.09;86.90
39265;BME280;42646;51.910;7.724;2023-03-04T03:16:37;101733.31;;;5.14;86.87
39265;BME280;42646;51.910;7.724;2023-03-04T03:19:06;101731.94;;;5.07;86.40
39265;BME280;42646;51.910;7.724;2023-03-04T03:21:35;101733.63;;;5.08;86.57
39265;BME280;42646;51.910;7.724;2023-03-04T03:24:10;101727.66;;;5.04;86.26
39265;BME280;42646;51.910;7.724;2023-03-04T03:26:38;101723.78;;;5.12;86.16
39265;BME280;42646;51.910;7.724;2023-03-04T03:29:06;101720.53;;;5.06;85.57
39265;BME280;42646;51.910;7.724;2023-03-04T03:31:34;101717.91;;;5.06;85.84
39265;BME280;42646;51.910;7.724;2023-03-04T03:34:02;101718.75;;;5.07;85.86
39265;BME280;42646;51.910;7.724;2023-03-04T03:36:31;101726.50;;;5.10;85.79
39265;BME280;42646;51.910;7.724;2023-03-04T03:38:58;101724.78;;;5.09;85.56
39265;BME280;42646;51.910;7.724;2023-03-04T03:41:26;101724.88;;;5.07;85.79
39265;BME280;42646;51.910;7.724;2023-03-04T03:43:54;101723.00;;;5.09;85.49
39265;BME280;42646;51.910;7.724;2023-03-04T03:46:22;101723.88;;;5.10;85.82
39265;BME280;42646;51.910;7.724;2023-03-04T03:48:54;101723.78;;;5.12;85.64
39265;BME280;42646;51.910;7.724;2023-03-04T03:51:22;101716.81;;;5.11;86.03
39265;BME280;42646;51.910;7.724;2023-03-04T03:53:51;101725.50;;;5.13;86.03
39265;BME280;42646;51.910;7.724;2023-03-04T03:56:19;101720.22;;;5.13;86.32
39265;BME280;42646;51.910;7.724;2023-03-04T03:58:47;101721.06;;;5.13;86.03
39265;BME280;42646;51.910;7.724;2023-03-04T04:01:15;101719.28;;;5.14;86.53
39265;BME280;42646;51.910;7.724;2023-03-04T04:03:43;101726.25;;;5.15;86.60
39265;BME280;42646;51.910;7.724;2023-03-04T04:06:11;101720.34;;;5.09;86.79
39265;BME280;42646;51.910;7.724;2023-03-04T04:08:38;101721.16;;;5.12;86.66
39265;BME280;42646;51.910;7.724;2023-03-04T04:11:08;101714.19;;;5.11;86.73
39265;BME280;42646;51.910;7.724;2023-03-04T04:13:36;101722.16;;;5.09;87.13
39265;BME280;42646;51.910;7.724;2023-03-04T04:16:06;101711.53;;;5.11;86.37
39265;BME280;42646;51.910;7.724;2023-03-04T04:18:35;101712.44;;;5.09;86.42
39265;BME280;42646;51.910;7.724;2023-03-04T04:21:04;101710.69;;;5.10;86.59
39265;BME280;42646;51.910;7.724;2023-03-04T04:23:33;101713.25;;;5.12;86.25
39265;BME280;42646;51.910;7.724;2023-03-04T04:26:01;101712.63;;;5.06;86.23
39265;BME280;42646;51.910;7.724;2023-03-04T04:28:32;101709.97;;;5.06;86.63
39265;BME280;42646;51.910;7.724;2023-03-04T04:30:59;101707.25;;;5.08;86.20
39265;BME280;42646;51.910;7.724;2023-03-04T04:33:27;101702.59;;;5.13;85.96
39265;BME280;42646;51.910;7.724;2023-03-04T04:35:55;101709.13;;;5.06;85.97
39265;BME280;42646;51.910;7.724;2023-03-04T04:38:24;101707.34;;;5.06;86.19
39265;BME280;42646;51.910;7.724;2023-03-04T04:40:52;101714.22;;;5.09;86.15
39265;BME280;42646;51.910;7.724;2023-03-04T04:43:20;101711.53;;;5.11;85.77
39265;BME280;42646;51.910;7.724;2023-03-04T04:45:48;101704.53;;;5.09;86.34
39265;BME280;42646;51.910;7.724;2023-03-04T04:48:16;101706.25;;;5.11;86.02
39265;BME280;42646;51.910;7.724;2023-03-04T04:50:45;101695.78;;;5.09;86.43
39265;BME280;42646;51.910;7.724;2023-03-04T04:53:14;101698.09;;;5.15;86.16
39265;BME280;42646;51.910;7.724;2023-03-04T04:55:43;101701.13;;;5.07;85.90
39265;BME280;42646;51.910;7.724;2023-03-04T04:58:10;101697.78;;;5.04;85.97
39265;BME280;42646;51.910;7.724;2023-03-04T05:00:38;101703.06;;;5.04;85.93
39265;BME280;42646;51.910;7.724;2023-03-04T05:03:07;101705.63;;;5.05;85.87
39265;BME280;42646;51.910;7.724;2023-03-04T05:05:35;101696.88;;;5.05;86.01
39265;BME280;42646;51.910;7.724;2023-03-04T05:08:03;101693.31;;;5.06;85.94
39265;BME280;42646;51.910;7.724;2023-03-04T05:10:31;101693.31;;;5.06;85.98
39265;BME280;42646;51.910;7.724;2023-03-04T05:12:59;101696.72;;;5.08;86.22
39265;BME280;42646;51.910;7.724;2023-03-04T05:15:27;101692.28;;;5.08;86.37
39265;BME280;42646;51.910;7.724;2023-03-04T05:17:54;101696.63;;;5.09;86.73
39265;BME280;42646;51.910;7.724;2023-03-04T05:20:24;101698.34;;;5.11;86.55
39265;BME280;42646;51.910;7.724;2023-03-04T05:22:52;101704.53;;;5.09;86.75
39265;BME280;42646;51.910;7.724;2023-03-04T05:25:20;101700.13;;;5.10;87.02
39265;BME280;42646;51.910;7.724;2023-03-04T05:27:48;101700.13;;;5.10;86.53
39265;BME280;42646;51.910;7.724;2023-03-04T05:30:16;101700.06;;;5.12;86.73
39265;BME280;42646;51.910;7.724;2023-03-04T05:32:45;101698.41;;;5.09;87.04
39265;BME280;42646;51.910;7.724;2023-03-04T05:35:13;101699.25;;;5.09;87.40
39265;BME280;42646;51.910;7.724;2023-03-04T05:38:08;101699.25;;;5.09;87.07
39265;BME280;42646;51.910;7.724;2023-03-04T05:40:36;101707.25;;;5.08;87.04
39265;BME280;42646;51.910;7.724;2023-03-04T05:43:04;101711.69;;;5.07;87.07
39265;BME280;42646;51.910;7.724;2023-03-04T05:45:32;101702.91;;;5.07;87.27
39265;BME280;42646;51.910;7.724;2023-03-04T05:48:01;101697.66;;;5.07;87.51
39265;BME280;42646;51.910;7.724;2023-03-04T05:50:30;101710.75;;;5.08;87.48
39265;BME280;42646;51.910;7.724;2023-03-04T05:52:58;101698.34;;;5.11;87.57
39265;BME280;42646;51.910;7.724;2023-03-04T05:55:28;101708.91;;;5.11;87.96
39265;BME280;42646;51.910;7.724;2023-03-04T05:57:56;101703.63;;;5.11;88.16
39265;BME280;42646;51.910;7.724;2023-03-04T06:00:50;101700.81;;;5.14;87.97
39265;BME280;42646;51.910;7.724;2023-03-04T06:03:19;101706.25;;;5.11;88.31
39265;BME280;42646;51.910;7.724;2023-03-04T06:05:49;101707.25;;;5.08;88.20
39265;BME280;42646;51.910;7.724;2023-03-04T06:08:17;101709.97;;;5.06;88.81
39265;BME280;42646;51.910;7.724;2023-03-04T06:10:46;101717.13;;;5.04;88.81
39265;BME280;42646;51.910;7.724;2023-03-04T06:13:14;101718.81;;;5.05;89.36
39265;BME280;42646;51.910;7.724;2023-03-04T06:15:42;101720.63;;;5.05;89.55
39265;BME280;42646;51.910;7.724;2023-03-04T06:18:10;101718.88;;;5.04;89.74
39265;BME280;42646;51.910;7.724;2023-03-04T06:20:38;101722.22;;;5.07;90.32
39265;BME280;42646;51.910;7.724;2023-03-04T06:23:06;101717.25;;;5.01;91.02
39265;BME280;42646;51.910;7.724;2023-03-04T06:25:34;101722.53;;;5.01;91.73
39265;BME280;42646;51.910;7.724;2023-03-04T06:28:03;101714.63;;;5.01;91.81
39265;BME280;42646;51.910;7.724;2023-03-04T06:30:30;101721.47;;;5.05;91.97
39265;BME280;42646;51.910;7.724;2023-03-04T06:32:58;101718.97;;;5.02;92.79
39265;BME280;42646;51.910;7.724;2023-03-04T06:35:26;101722.44;;;5.03;92.99
39265;BME280;42646;51.910;7.724;2023-03-04T06:37:54;101715.41;;;5.03;93.17
39265;BME280;42646;51.910;7.724;2023-03-04T06:40:23;101719.75;;;5.04;93.75
39265;BME280;42646;51.910;7.724;2023-03-04T06:42:52;101724.25;;;5.02;94.04
39265;BME280;42646;51.910;7.724;2023-03-04T06:45:21;101725.94;;;5.03;94.35
39265;BME280;42646;51.910;7.724;2023-03-04T06:47:49;101728.56;;;5.03;94.97
39265;BME280;42646;51.910;7.724;2023-03-04T06:50:18;101724.16;;;5.04;95.07
39265;BME280;42646;51.910;7.724;2023-03-04T06:52:46;101726.75;;;5.05;95.73
39265;BME280;42646;51.910;7.724;2023-03-04T06:55:14;101737.28;;;5.05;95.89
39265;BME280;42646;51.910;7.724;2023-03-04T06:57:42;101735.41;;;5.07;96.30
39265;BME280;42646;51.910;7.724;2023-03-04T07:00:13;101739.06;;;5.05;96.51
39265;BME280;42646;51.910;7.724;2023-03-04T07:02:42;101740.84;;;5.04;96.85
39265;BME280;42646;51.910;7.724;2023-03-04T07:05:10;101739.97;;;5.04;97.67
39265;BME280;42646;51.910;7.724;2023-03-04T07:07:38;101741.75;;;5.03;98.04
39265;BME280;42646;51.910;7.724;2023-03-04T07:10:06;101740.91;;;5.03;98.17
39265;BME280;42646;51.910;7.724;2023-03-04T07:12:35;101732.94;;;5.04;98.54
39265;BME280;42646;51.910;7.724;2023-03-04T07:15:04;101736.50;;;5.03;98.85
39265;BME280;42646;51.910;7.724;2023-03-04T07:17:33;101727.91;;;5.00;98.88
39265;BME280;42646;51.910;7.724;2023-03-04T07:20:03;101730.53;;;5.00;98.92
39265;BME280;42646;51.910;7.724;2023-03-04T07:22:31;101740.16;;;5.01;99.09
39265;BME280;42646;51.910;7.724;2023-03-04T07:24:59;101737.34;;;5.04;99.31
39265;BME280;42646;51.910;7.724;2023-03-04T07:27:27;101736.66;;;5.00;99.51
39265;BME280;42646;51.910;7.724;2023-03-04T07:29:54;101738.28;;;5.03;99.55
39265;BME280;42646;51.910;7.724;2023-03-04T07:32:24;101728.56;;;5.03;99.88
39265;BME280;42646;51.910;7.724;2023-03-04T07:34:52;101728.53;;;5.05;99.80
39265;BME280;42646;51.910;7.724;2023-03-04T07:37:21;101724.66;;;5.12;99.44
39265;BME280;42646;51.910;7.724;2023-03-04T07:39:48;101725.72;;;5.08;99.64
39265;BME280;42646;51.910;7.724;2023-03-04T07:42:17;101724.72;;;5.11;99.58
39265;BME280;42646;51.910;7.724;2023-03-04T07:44:51;101726.50;;;5.10;99.75
39265;BME280;42646;51.910;7.724;2023-03-04T07:47:21;101731.47;;;5.16;99.52
39265;BME280;42646;51.910;7.724;2023-03-04T07:49:49;101728.91;;;5.15;99.88
39265;BME280;42646;51.910;7.724;2023-03-04T07:52:20;101727.75;;;5.20;99.30
39265;BME280;42646;51.910;7.724;2023-03-04T07:54:48;101726.81;;;5.21;99.50
39265;BME280;42646;51.910;7.724;2023-03-04T07:57:20;101724.09;;;5.23;99.47
39265;BME280;42646;51.910;7.724;2023-03-04T07:59:48;101727.38;;;5.28;99.42
39265;BME280;42646;51.910;7.724;2023-03-04T08:02:18;101734.34;;;5.29;99.26
39265;BME280;42646;51.910;7.724;2023-03-04T08:04:46;101727.91;;;5.34;99.21
39265;BME280;42646;51.910;7.724;2023-03-04T08:07:14;101730.16;;;5.42;98.97
39265;BME280;42646;51.910;7.724;2023-03-04T08:09:43;101731.09;;;5.41;99.42
39265;BME280;42646;51.910;7.724;2023-03-04T08:12:11;101731.84;;;5.43;99.31
39265;BME280;42646;51.910;7.724;2023-03-04T08:14:39;101733.22;;;5.50;99.31
39265;BME280;42646;51.910;7.724;2023-03-04T08:17:07;101736.91;;;5.48;99.72
39265;BME280;42646;51.910;7.724;2023-03-04T08:19:35;101734.16;;;5.49;99.71
39265;BME280;42646;51.910;7.724;2023-03-04T08:22:03;101732.78;;;5.59;99.67
39265;BME280;42646;51.910;7.724;2023-03-04T08:24:31;101729.66;;;5.51;100.00
39265;BME280;42646;51.910;7.724;2023-03-04T08:27:00;101736.66;;;5.52;100.00
39265;BME280;42646;51.910;7.724;2023-03-04T08:29:28;101737.19;;;5.59;100.00
39265;BME280;42646;51.910;7.724;2023-03-04T08:31:58;101738.97;;;5.58;100.00
39265;BME280;42646;51.910;7.724;2023-03-04T08:34:27;101741.63;;;5.58;100.00
39265;BME280;42646;51.910;7.724;2023-03-04T08:36:55;101746.91;;;5.58;100.00
39265;BME280;42646;51.910;7.724;2023-03-04T08:39:23;101744.19;;;5.60;100.00
39265;BME280;42646;51.910;7.724;2023-03-04T08:41:51;101741.44;;;5.61;100.00
39265;BME280;42646;51.910;7.724;2023-03-04T08:44:20;101743.00;;;5.66;100.00
39265;BME280;42646;51.910;7.724;2023-03-04T08:46:51;101742.84;;;5.69;100.00
39265;BME280;42646;51.910;7.724;2023-03-04T08:49:19;101746.41;;;5.68;100.00
39265;BME280;42646;51.910;7.724;2023-03-04T08:51:47;101745.72;;;5.64;100.00
39265;BME280;42646;51.910;7.724;2023-03-04T08:54:16;101744.88;;;5.63;100.00
39265;BME280;42646;51.910;7.724;2023-03-04T08:56:44;101734.91;;;5.69;100.00
39265;BME280;42646;51.910;7.724;2023-03-04T08:59:12;101734.16;;;5.67;100.00
39265;BME280;42646;51.910;7.724;2023-03-04T09:01:41;101727.84;;;5.69;100.00
39265;BME280;42646;51.910;7.724;2023-03-04T09:04:09;101729.63;;;5.69;100.00
39265;BME280;42646;51.910;7.724;2023-03-04T09:06:38;101725.91;;;5.73;100.00
39265;BME280;42646;51.910;7.724;2023-03-04T09:09:06;101719.63;;;5.75;100.00
39265;BME280;42646;51.910;7.724;2023-03-04T09:11:34;101734.25;;;5.81;100.00
39265;BME280;42646;51.910;7.724;2023-03-04T09:14:02;101720.16;;;5.82;100.00
39265;BME280;42646;51.910;7.724;2023-03-04T09:16:30;101718.28;;;5.84;100.00
39265;BME280;42646;51.910;7.724;2023-03-04T09:18:59;101719.69;;;5.91;100.00
39265;BME280;42646;51.910;7.724;2023-03-04T09:21:26;101714.44;;;5.89;100.00
39265;BME280;42646;51.910;7.724;2023-03-04T09:23:54;101716.94;;;5.93;100.00
39265;BME280;42646;51.910;7.724;2023-03-04T09:26:25;101720.19;;;5.98;100.00
39265;BME280;42646;51.910;7.724;2023-03-04T09:28:55;101721.00;;;6.00;100.00
39265;BME280;42646;51.910;7.724;2023-03-04T09:31:25;101722.34;;;6.07;100.00
39265;BME280;42646;51.910;7.724;2023-03-04T09:33:54;101722.13;;;6.11;100.00
39265;BME280;42646;51.910;7.724;2023-03-04T09:36:24;101722.13;;;6.11;100.00
39265;BME280;42646;51.910;7.724;2023-03-04T09:38:53;101714.75;;;6.16;100.00
39265;BME280;42646;51.910;7.724;2023-03-04T09:41:24;101718.81;;;6.24;100.00
39265;BME280;42646;51.910;7.724;2023-03-04T09:43:53;101710.53;;;6.30;100.00
39265;BME280;42646;51.910;7.724;2023-03-04T09:46:27;101715.38;;;6.37;100.00
39265;BME280;42646;51.910;7.724;2023-03-04T09:48:57;101715.13;;;6.42;100.00
39265;BME280;42646;51.910;7.724;2023-03-04T09:51:39;101717.09;;;6.38;100.00
39265;BME280;42646;51.910;7.724;2023-03-04T09:54:10;101716.41;;;6.35;100.00
39265;BME280;42646;51.910;7.724;2023-03-04T09:56:41;101720.75;;;6.36;100.00
39265;BME280;42646;51.910;7.724;2023-03-04T09:59:15;101715.47;;;6.36;100.00
39265;BME280;42646;51.910;7.724;2023-03-04T10:01:47;101716.31;;;6.36;100.00
39265;BME280;42646;51.910;7.724;2023-03-04T10:04:18;101724.16;;;6.38;100.00
39265;BME280;42646;51.910;7.724;2023-03-04T10:06:50;101714.44;;;6.38;100.00
39265;BME280;42646;51.910;7.724;2023-03-04T10:09:23;101719.47;;;6.43;100.00
39265;BME280;42646;51.910;7.724;2023-03-04T10:11:59;101716.66;;;6.46;100.00
39265;BME280;42646;51.910;7.724;2023-03-04T10:14:32;101715.28;;;6.55;100.00
39265;BME280;42646;51.910;7.724;2023-03-04T10:17:06;101711.09;;;6.51;100.00
39265;BME280;42646;51.910;7.724;2023-03-04T10:19:51;101704.88;;;6.52;100.00
39265;BME280;42646;51.910;7.724;2023-03-04T10:22:26;101697.84;;;6.52;100.00
39265;BME280;42646;51.910;7.724;2023-03-04T10:24:58;101699.59;;;6.52;100.00
39265;BME280;42646;51.910;7.724;2023-03-04T10:27:28;101702.22;;;6.52;100.00
39265;BME280;42646;51.910;7.724;2023-03-04T10:29:58;101704.53;;;6.58;100.00
39265;BME280;42646;51.910;7.724;2023-03-04T10:32:27;101704.38;;;6.61;100.00
39265;BME280;42646;51.910;7.724;2023-03-04T10:34:55;101693.69;;;6.62;100.00
39265;BME280;42646;51.910;7.724;2023-03-04T10:37:42;101696.59;;;6.74;100.00
39265;BME280;42646;51.910;7.724;2023-03-04T10:40:18;101695.22;;;6.82;100.00
39265;BME280;42646;51.910;7.724;2023-03-04T10:42:48;101695.78;;;6.87;100.00
39265;BME280;42646;51.910;7.724;2023-03-04T10:45:21;101688.78;;;6.86;100.00
39265;BME280;42646;51.910;7.724;2023-03-04T10:47:54;101693.44;;;6.83;100.00
39265;BME280;42646;51.910;7.724;2023-03-04T10:50:25;101695.03;;;6.85;100.00
39265;BME280;42646;51.910;7.724;2023-03-04T10:52:55;101702.03;;;6.86;100.00
39265;BME280;42646;51.910;7.724;2023-03-04T10:55:25;101689.56;;;6.88;100.00
39265;BME280;42646;51.910;7.724;2023-03-04T10:57:55;101691.38;;;6.88;100.00
39265;BME280;42646;51.910;7.724;2023-03-04T11:00:30;101690.44;;;6.89;100.00
39265;BME280;42646;51.910;7.724;2023-03-04T11:03:22;101684.78;;;6.95;100.00
39265;BME280;42646;51.910;7.724;2023-03-04T11:06:07;101684.44;;;6.85;100.00
39265;BME280;42646;51.910;7.724;2023-03-04T11:08:41;101681.13;;;6.82;100.00
39265;BME280;42646;51.910;7.724;2023-03-04T11:11:23;101684.53;;;6.84;100.00
39265;BME280;42646;51.910;7.724;2023-03-04T11:13:57;101684.13;;;6.76;100.00
39265;BME280;42646;51.910;7.724;2023-03-04T11:16:27;101682.34;;;6.76;100.00
39265;BME280;42646;51.910;7.724;2023-03-04T11:18:58;101687.81;;;6.73;100.00
39265;BME280;42646;51.910;7.724;2023-03-04T11:21:29;101687.53;;;6.78;100.00
39265;BME280;42646;51.910;7.724;2023-03-04T11:24:01;101681.41;;;6.77;100.00
39265;BME280;42646;51.910;7.724;2023-03-04T11:26:34;101676.13;;;6.77;100.00
39265;BME280;42646;51.910;7.724;2023-03-04T11:29:07;101676.97;;;6.78;100.00
39265;BME280;42646;51.910;7.724;2023-03-04T11:31:46;101670.91;;;6.76;100.00
39265;BME280;42646;51.910;7.724;2023-03-04T11:34:27;101668.09;;;6.79;100.00
39265;BME280;42646;51.910;7.724;2023-03-04T11:36:58;101671.22;;;6.85;100.00
39265;BME280;42646;51.910;7.724;2023-03-04T11:39:33;101672.66;;;6.91;100.00
39265;BME280;42646;51.910;7.724;2023-03-04T11:42:10;101666.16;;;6.96;100.00
39265;BME280;42646;51.910;7.724;2023-03-04T11:44:42;101661.56;;;7.00;100.00
39265;BME280;42646;51.910;7.724;2023-03-04T11:47:30;101658.38;;;6.93;100.00
39265;BME280;42646;51.910;7.724;2023-03-04T11:50:12;101664.63;;;6.92;100.00
39265;BME280;42646;51.910;7.724;2023-03-04T11:53:01;101662.34;;;6.86;100.00
39265;BME280;42646;51.910;7.724;2023-03-04T11:55:39;101662.91;;;6.77;100.00
39265;BME280;42646;51.910;7.724;2023-03-04T11:58:19;101658.91;;;6.70;100.00
39265;BME280;42646;51.910;7.724;2023-03-04T12:00:55;101658.31;;;6.65;100.00
39265;BME280;42646;51.910;7.724;2023-03-04T12:03:45;101653.44;;;6.57;100.00
39265;BME280;42646;51.910;7.724;2023-03-04T12:06:26;101657.88;;;6.57;100.00
39265;BME280;42646;51.910;7.724;2023-03-04T12:09:07;101654.75;;;6.50;100.00
39265;BME280;42646;51.910;7.724;2023-03-04T12:11:51;101640.78;;;6.48;100.00
39265;BME280;42646;51.910;7.724;2023-03-04T12:14:26;101638.28;;;6.45;100.00
39265;BME280;42646;51.910;7.724;2023-03-04T12:17:23;101641.13;;;6.42;100.00
39265;BME280;42646;51.910;7.724;2023-03-04T12:20:26;101628.41;;;6.33;100.00
39265;BME280;42646;51.910;7.724;2023-03-04T12:23:05;101623.63;;;6.39;100.00
39265;BME280;42646;51.910;7.724;2023-03-04T12:25:40;101628.66;;;6.44;100.00
39265;BME280;42646;51.910;7.724;2023-03-04T12:31:32;101607.66;;;6.57;100.00
39265;BME280;42646;51.910;7.724;2023-03-04T12:34:37;101605.50;;;6.63;100.00
39265;BME280;42646;51.910;7.724;2023-03-04T12:37:19;101603.38;;;6.70;100.00
39265;BME280;42646;51.910;7.724;2023-03-04T12:40:02;101601.72;;;6.83;100.00
39265;BME280;42646;51.910;7.724;2023-03-04T12:42:37;101594.25;;;6.90;100.00
39265;BME280;42646;51.910;7.724;2023-03-04T12:45:17;101593.69;;;6.99;100.00
39265;BME280;42646;51.910;7.724;2023-03-04T12:47:57;101590.13;;;7.00;100.00
39265;BME280;42646;51.910;7.724;2023-03-04T12:50:57;101593.31;;;7.05;100.00
39265;BME280;42646;51.910;7.724;2023-03-04T12:53:32;101586.91;;;7.09;100.00
39265;BME280;42646;51.910;7.724;2023-03-04T12:56:18;101593.81;;;7.12;100.00
39265;BME280;42646;51.910;7.724;2023-03-04T12:58:48;101597.13;;;7.01;100.00
39265;BME280;42646;51.910;7.724;2023-03-04T13:01:22;101589.34;;;6.98;100.00
39265;BME280;42646;51.910;7.724;2023-03-04T13:03:59;101588.41;;;6.99;100.00
39265;BME280;42646;51.910;7.724;2023-03-04T13:06:39;101587.75;;;6.95;100.00
39265;BME280;42646;51.910;7.724;2023-03-04T13:09:15;101592.19;;;6.95;100.00
39265;BME280;42646;51.910;7.724;2023-03-04T13:11:54;101591.25;;;6.96;100.00
39265;BME280;42646;51.910;7.724;2023-03-04T13:14:30;101586.31;;;6.90;100.00
39265;BME280;42646;51.910;7.724;2023-03-04T13:16:59;101579.22;;;6.90;100.00
39265;BME280;42646;51.910;7.724;2023-03-04T13:19:47;101585.19;;;6.94;100.00
39265;BME280;42646;51.910;7.724;2023-03-04T13:22:32;101585.84;;;6.97;100.00